Time,TemperatureF,DewpointF,PressureIn,WindDirection,WindDirectionDegrees,WindSpeedMPH,WindSpeedGustMPH,Humidity,HourlyPrecipIn,Conditions,Clouds,dailyrainin,SolarRadiationWatts/m^2,SoftwareType,DateUTC
2013-02-25 00:02:00,20.0,18.0,-100.00,SSW,207,0.0,0.0,90,0.00,,,0.02,0.000000,,2013-02-25 06:02:00,
2013-02-25 00:32:00,21.0,19.0,-100.00,East,94,2.0,3.0,92,0.00,,,0.02,0.000000,,2013-02-25 06:32:00,
2013-02-25 00:42:00,21.0,19.0,-100.00,East,94,2.0,3.0,92,0.00,,,0.02,0.000000,,2013-02-25 06:42:00,
2013-02-25 00:52:00,21.0,19.0,-100.00,East,94,2.0,3.0,92,0.00,,,0.02,0.000000,,2013-02-25 06:52:00,
2013-02-25 01:01:00,21.0,19.0,-100.00,East,94,2.0,3.0,92,0.00,,,0.02,0.000000,,2013-02-25 07:01:00,
2013-02-25 01:32:00,21.0,19.0,-100.00,ESE,123,1.0,2.0,91,0.00,,,0.02,0.000000,,2013-02-25 07:32:00,
2013-02-25 01:42:00,21.0,19.0,-100.00,ESE,123,1.0,2.0,91,0.00,,,0.02,0.000000,,2013-02-25 07:42:00,
2013-02-25 01:52:00,21.0,19.0,-100.00,ESE,123,1.0,2.0,91,0.00,,,0.02,0.000000,,2013-02-25 07:52:00,
2013-02-25 02:01:00,21.0,19.0,-100.00,ESE,123,1.0,2.0,91,0.00,,,0.02,0.000000,,2013-02-25 08:01:00,
2013-02-25 02:32:00,21.0,19.0,-100.00,NE,45,1.0,2.0,91,0.00,,,0.02,0.000000,,2013-02-25 08:32:00,
2013-02-25 02:42:00,21.0,19.0,-100.00,NE,45,1.0,2.0,91,0.00,,,0.02,0.000000,,2013-02-25 08:42:00,
2013-02-25 02:52:00,21.0,19.0,-100.00,NE,45,1.0,2.0,91,0.00,,,0.02,0.000000,,2013-02-25 08:52:00,
2013-02-25 03:01:00,21.0,19.0,-100.00,NE,45,1.0,2.0,91,0.00,,,0.02,0.000000,,2013-02-25 09:01:00,
2013-02-25 03:32:00,19.0,17.0,-100.00,WSW,256,0.0,0.0,90,0.00,,,0.02,0.000000,,2013-02-25 09:32:00,
2013-02-25 03:42:00,19.0,17.0,-100.00,WSW,256,0.0,0.0,90,0.00,,,0.02,0.000000,,2013-02-25 09:42:00,
2013-02-25 03:52:00,19.0,17.0,-100.00,WSW,256,0.0,0.0,90,0.00,,,0.02,0.000000,,2013-02-25 09:52:00,
2013-02-25 04:01:00,19.0,17.0,-100.00,WSW,256,0.0,0.0,90,0.00,,,0.02,0.000000,,2013-02-25 10:01:00,
2013-02-25 04:32:00,18.0,15.0,-100.00,SW,229,0.0,2.0,89,0.00,,,0.02,0.000000,,2013-02-25 10:32:00,
2013-02-25 04:42:00,18.0,15.0,-100.00,SW,229,0.0,2.0,89,0.00,,,0.02,0.000000,,2013-02-25 10:42:00,
2013-02-25 04:52:00,18.0,15.0,-100.00,SW,229,0.0,2.0,89,0.00,,,0.02,0.000000,,2013-02-25 10:52:00,
2013-02-25 05:01:00,18.0,15.0,-100.00,SW,229,0.0,2.0,89,0.00,,,0.02,0.000000,,2013-02-25 11:01:00,
2013-02-25 05:32:00,18.0,16.0,-100.00,SE,139,0.0,0.0,91,0.00,,,0.02,0.000000,,2013-02-25 11:32:00,
2013-02-25 05:42:00,18.0,16.0,-100.00,SE,139,0.0,0.0,91,0.00,,,0.02,0.000000,,2013-02-25 11:42:00,
2013-02-25 05:52:00,18.0,16.0,-100.00,SE,139,0.0,0.0,91,0.00,,,0.02,0.000000,,2013-02-25 11:52:00,
2013-02-25 06:02:00,18.0,16.0,-100.00,SE,139,0.0,0.0,91,0.00,,,0.02,0.000000,,2013-02-25 12:02:00,
2013-02-25 06:32:00,19.0,17.0,-100.00,ESE,119,0.0,2.0,92,0.00,,,0.02,0.000000,,2013-02-25 12:32:00,
2013-02-25 06:42:00,19.0,17.0,-100.00,ESE,119,0.0,2.0,92,0.00,,,0.02,0.000000,,2013-02-25 12:42:00,
2013-02-25 06:55:00,19.0,17.0,-100.00,ESE,119,0.0,2.0,92,0.00,,,0.02,0.000000,,2013-02-25 12:55:00,
2013-02-25 07:02:00,19.0,17.0,-100.00,ESE,119,0.0,2.0,92,0.00,,,0.02,0.000000,,2013-02-25 13:02:00,
2013-02-25 07:32:00,24.0,21.0,-100.00,ESE,110,5.0,7.0,87,0.00,,,0.02,10.000000,,2013-02-25 13:32:00,
2013-02-25 07:42:00,24.0,21.0,-100.00,ESE,110,5.0,7.0,87,0.00,,,0.02,10.000000,,2013-02-25 13:42:00,
2013-02-25 07:52:00,24.0,21.0,-100.00,ESE,110,5.0,7.0,87,0.00,,,0.02,10.000000,,2013-02-25 13:52:00,
2013-02-25 08:03:00,24.0,21.0,-100.00,ESE,110,5.0,7.0,87,0.00,,,0.02,10.000000,,2013-02-25 14:03:00,
2013-02-25 08:32:00,30.0,24.0,-100.00,ESE,116,7.0,9.0,78,0.00,,,0.02,135.000000,,2013-02-25 14:32:00,
2013-02-25 08:42:00,30.0,24.0,-100.00,ESE,116,7.0,9.0,78,0.00,,,0.02,135.000000,,2013-02-25 14:42:00,
2013-02-25 08:52:00,30.0,24.0,-100.00,ESE,116,7.0,9.0,78,0.00,,,0.02,135.000000,,2013-02-25 14:52:00,
2013-02-25 09:02:00,30.0,24.0,-100.00,ESE,116,7.0,9.0,78,0.00,,,0.02,135.000000,,2013-02-25 15:02:00,
2013-02-25 09:32:00,34.0,26.0,-100.00,ESE,121,6.0,8.0,71,0.00,,,0.02,320.000000,,2013-02-25 15:32:00,
2013-02-25 09:42:00,34.0,26.0,-100.00,ESE,121,6.0,8.0,71,0.00,,,0.02,320.000000,,2013-02-25 15:42:00,
2013-02-25 09:52:00,34.0,26.0,-100.00,ESE,121,6.0,8.0,71,0.00,,,0.02,320.000000,,2013-02-25 15:52:00,
2013-02-25 10:02:00,34.0,26.0,-100.00,ESE,121,6.0,8.0,71,0.00,,,0.02,320.000000,,2013-02-25 16:02:00,
2013-02-25 10:32:00,37.0,27.0,-100.00,ESE,123,7.0,9.0,67,0.00,,,0.01,505.000000,,2013-02-25 16:32:00,
2013-02-25 10:42:00,37.0,27.0,-100.00,ESE,123,7.0,9.0,67,0.00,,,0.01,505.000000,,2013-02-25 16:42:00,
2013-02-25 10:52:00,37.0,27.0,-100.00,ESE,123,7.0,9.0,67,0.00,,,0.01,505.000000,,2013-02-25 16:52:00,
2013-02-25 11:01:00,37.0,27.0,-100.00,ESE,123,7.0,9.0,67,0.00,,,0.01,505.000000,,2013-02-25 17:01:00,
2013-02-25 11:32:00,40.0,29.0,-100.00,SE,134,8.0,11.0,64,0.00,,,0.00,635.000000,,2013-02-25 17:32:00,
2013-02-25 11:42:00,40.0,29.0,-100.00,SE,134,8.0,11.0,64,0.00,,,0.00,635.000000,,2013-02-25 17:42:00,
2013-02-25 11:52:00,40.0,29.0,-100.00,SE,134,8.0,11.0,64,0.00,,,0.00,635.000000,,2013-02-25 17:52:00,
2013-02-25 12:01:00,40.0,29.0,-100.00,SE,134,8.0,11.0,64,0.00,,,0.00,635.000000,,2013-02-25 18:01:00,
2013-02-25 12:33:00,41.0,28.0,-100.00,SE,131,8.0,10.0,60,0.00,,,0.00,710.000000,,2013-02-25 18:33:00,
2013-02-25 12:42:00,41.0,28.0,-100.00,SE,131,8.0,10.0,60,0.00,,,0.00,710.000000,,2013-02-25 18:42:00,
2013-02-25 12:52:00,41.0,28.0,-100.00,SE,131,8.0,10.0,60,0.00,,,0.00,710.000000,,2013-02-25 18:52:00,
2013-02-25 13:01:00,41.0,28.0,-100.00,SE,131,8.0,10.0,60,0.00,,,0.00,710.000000,,2013-02-25 19:01:00,
2013-02-25 13:32:00,42.0,27.0,-100.00,ESE,122,10.0,13.0,56,0.00,,,0.00,722.000000,,2013-02-25 19:32:00,
2013-02-25 13:42:00,42.0,27.0,-100.00,ESE,122,10.0,13.0,56,0.00,,,0.00,722.000000,,2013-02-25 19:42:00,
2013-02-25 13:52:00,42.0,27.0,-100.00,ESE,122,10.0,13.0,56,0.00,,,0.00,722.000000,,2013-02-25 19:52:00,
2013-02-25 14:01:00,42.0,27.0,-100.00,ESE,122,10.0,13.0,56,0.00,,,0.00,722.000000,,2013-02-25 20:01:00,
2013-02-25 14:32:00,44.0,29.0,-100.00,ESE,110,8.0,11.0,55,0.00,,,0.00,660.000000,,2013-02-25 20:32:00,
2013-02-25 14:42:00,44.0,29.0,-100.00,ESE,110,8.0,11.0,55,0.00,,,0.00,660.000000,,2013-02-25 20:42:00,
2013-02-25 14:52:00,44.0,29.0,-100.00,ESE,110,8.0,11.0,55,0.00,,,0.00,660.000000,,2013-02-25 20:52:00,
2013-02-25 15:01:00,44.0,29.0,-100.00,ESE,110,8.0,11.0,55,0.00,,,0.00,660.000000,,2013-02-25 21:01:00,
2013-02-25 15:32:00,44.0,28.0,-100.00,ESE,108,7.0,10.0,53,0.00,,,0.00,538.000000,,2013-02-25 21:32:00,
2013-02-25 15:42:00,44.0,28.0,-100.00,ESE,108,7.0,10.0,53,0.00,,,0.00,538.000000,,2013-02-25 21:42:00,
2013-02-25 15:52:00,44.0,28.0,-100.00,ESE,108,7.0,10.0,53,0.00,,,0.00,538.000000,,2013-02-25 21:52:00,
2013-02-25 16:01:00,44.0,28.0,-100.00,ESE,108,7.0,10.0,53,0.00,,,0.00,538.000000,,2013-02-25 22:01:00,
2013-02-25 16:32:00,42.0,28.0,-100.00,East,84,6.0,9.0,58,0.00,,,0.00,267.000000,,2013-02-25 22:32:00,
2013-02-25 16:42:00,42.0,28.0,-100.00,East,84,6.0,9.0,58,0.00,,,0.00,267.000000,,2013-02-25 22:42:00,
2013-02-25 16:52:00,42.0,28.0,-100.00,East,84,6.0,9.0,58,0.00,,,0.00,267.000000,,2013-02-25 22:52:00,
2013-02-25 17:01:00,42.0,28.0,-100.00,East,84,6.0,9.0,58,0.00,,,0.00,267.000000,,2013-02-25 23:01:00,
2013-02-25 17:32:00,40.0,29.0,-100.00,East,88,4.0,5.0,64,0.00,,,0.00,77.000000,,2013-02-25 23:32:00,
2013-02-25 17:42:00,40.0,29.0,-100.00,East,88,4.0,5.0,64,0.00,,,0.00,77.000000,,2013-02-25 23:42:00,
2013-02-25 17:52:00,40.0,29.0,-100.00,East,88,4.0,5.0,64,0.00,,,0.00,77.000000,,2013-02-25 23:52:00,
2013-02-25 18:01:00,40.0,29.0,-100.00,East,88,4.0,5.0,64,0.00,,,0.00,77.000000,,2013-02-26 00:01:00,
2013-02-25 18:32:00,37.0,28.0,-100.00,NE,56,5.0,8.0,71,0.00,,,0.00,7.000000,,2013-02-26 00:32:00,
2013-02-25 18:42:00,37.0,28.0,-100.00,NE,56,5.0,8.0,71,0.00,,,0.00,7.000000,,2013-02-26 00:42:00,
2013-02-25 18:52:00,37.0,28.0,-100.00,NE,56,5.0,8.0,71,0.00,,,0.00,7.000000,,2013-02-26 00:52:00,
2013-02-25 19:02:00,37.0,28.0,-100.00,NE,56,5.0,8.0,71,0.00,,,0.00,7.000000,,2013-02-26 01:02:00,
2013-02-25 20:32:00,34.0,27.0,-100.00,ENE,58,5.0,9.0,76,-99.99,,,0.00,0.000000,,2013-02-26 02:32:00,
2013-02-25 20:42:00,34.0,27.0,-100.00,ENE,58,5.0,9.0,76,-99.99,,,0.00,0.000000,,2013-02-26 02:42:00,
2013-02-25 20:52:00,34.0,27.0,-100.00,ENE,58,5.0,9.0,76,-99.99,,,0.00,0.000000,,2013-02-26 02:52:00,
2013-02-25 21:02:00,34.0,27.0,-100.00,ENE,58,5.0,9.0,76,-99.99,,,0.00,0.000000,,2013-02-26 03:02:00,
2013-02-25 21:32:00,33.0,28.0,-100.00,ENE,58,5.0,8.0,80,0.00,,,-99.99,0.000000,,2013-02-26 03:32:00,
2013-02-25 21:42:00,33.0,28.0,-100.00,ENE,58,5.0,8.0,80,0.00,,,-99.99,0.000000,,2013-02-26 03:42:00,
2013-02-25 21:52:00,33.0,28.0,-100.00,ENE,58,5.0,8.0,80,0.00,,,-99.99,0.000000,,2013-02-26 03:52:00,
2013-02-25 22:01:00,33.0,28.0,-100.00,ENE,58,5.0,8.0,80,0.00,,,-99.99,0.000000,,2013-02-26 04:01:00,
2013-02-25 22:32:00,34.0,28.0,-100.00,ENE,65,7.0,13.0,78,0.00,,,0.00,0.000000,,2013-02-26 04:32:00,
2013-02-25 22:42:00,34.0,28.0,-100.00,ENE,65,7.0,13.0,78,0.00,,,0.00,0.000000,,2013-02-26 04:42:00,
2013-02-25 22:52:00,34.0,28.0,-100.00,ENE,65,7.0,13.0,78,0.00,,,0.00,0.000000,,2013-02-26 04:52:00,
2013-02-25 23:01:00,34.0,28.0,-100.00,ENE,65,7.0,13.0,78,0.00,,,0.00,0.000000,,2013-02-26 05:01:00,
2013-02-25 23:32:00,34.0,27.0,-100.00,ENE,59,7.0,11.0,75,0.00,,,0.00,0.000000,,2013-02-26 05:32:00,
2013-02-25 23:43:00,34.0,27.0,-100.00,ENE,59,7.0,11.0,75,0.00,,,0.00,0.000000,,2013-02-26 05:43:00,
2013-02-25 23:52:00,34.0,27.0,-100.00,ENE,59,7.0,11.0,75,0.00,,,0.00,0.000000,,2013-02-26 05:52:00,